sensor_id;sensor_type;location;lat;lon;timestamp;temperature;humidity
19256;DHT22;9762;52.490;13.410;2022-07-22T00:00:12;24.30;93.60
19256;DHT22;9762;52.490;13.410;2022-07-22T00:02:38;24.30;93.60
19256;DHT22;9762;52.490;13.410;2022-07-22T00:05:04;24.30;93.60
19256;DHT22;9762;52.490;13.410;2022-07-22T00:07:30;24.40;93.50
19256;DHT22;9762;52.490;13.410;2022-07-22T00:09:56;24.40;93.40
19256;DHT22;9762;52.490;13.410;2022-07-22T00:12:21;24.40;93.20
19256;DHT22;9762;52.490;13.410;2022-07-22T00:14:47;24.40;92.90
19256;DHT22;9762;52.490;13.410;2022-07-22T00:17:12;24.40;92.80
19256;DHT22;9762;52.490;13.410;2022-07-22T00:19:38;24.30;92.70
19256;DHT22;9762;52.490;13.410;2022-07-22T00:22:04;24.30;92.50
19256;DHT22;9762;52.490;13.410;2022-07-22T00:24:30;24.30;92.60
19256;DHT22;9762;52.490;13.410;2022-07-22T00:26:55;24.30;92.70
19256;DHT22;9762;52.490;13.410;2022-07-22T00:29:21;24.30;92.60
19256;DHT22;9762;52.490;13.410;2022-07-22T00:31:47;24.30;92.50
19256;DHT22;9762;52.490;13.410;2022-07-22T00:34:12;24.30;92.60
19256;DHT22;9762;52.490;13.410;2022-07-22T00:36:38;24.30;92.80
19256;DHT22;9762;52.490;13.410;2022-07-22T00:39:03;24.20;92.60
19256;DHT22;9762;52.490;13.410;2022-07-22T00:41:29;24.20;92.70
19256;DHT22;9762;52.490;13.410;2022-07-22T00:43:59;24.20;92.70
19256;DHT22;9762;52.490;13.410;2022-07-22T00:46:26;24.10;92.80
19256;DHT22;9762;52.490;13.410;2022-07-22T00:48:52;24.10;92.80
19256;DHT22;9762;52.490;13.410;2022-07-22T00:51:18;24.10;92.80
19256;DHT22;9762;52.490;13.410;2022-07-22T00:53:45;24.00;92.90
19256;DHT22;9762;52.490;13.410;2022-07-22T00:56:11;24.10;92.90
19256;DHT22;9762;52.490;13.410;2022-07-22T00:58:37;24.00;92.90
19256;DHT22;9762;52.490;13.410;2022-07-22T01:01:03;24.00;93.00
19256;DHT22;9762;52.490;13.410;2022-07-22T01:03:29;24.00;93.10
19256;DHT22;9762;52.490;13.410;2022-07-22T01:05:54;24.00;93.10
19256;DHT22;9762;52.490;13.410;2022-07-22T01:08:20;23.90;93.10
19256;DHT22;9762;52.490;13.410;2022-07-22T01:10:46;23.90;93.10
19256;DHT22;9762;52.490;13.410;2022-07-22T01:13:12;23.90;93.20
19256;DHT22;9762;52.490;13.410;2022-07-22T01:15:38;23.90;93.00
19256;DHT22;9762;52.490;13.410;2022-07-22T01:18:03;23.90;93.00
19256;DHT22;9762;52.490;13.410;2022-07-22T01:20:29;23.80;93.10
19256;DHT22;9762;52.490;13.410;2022-07-22T01:22:55;23.80;93.10
19256;DHT22;9762;52.490;13.410;2022-07-22T01:25:21;23.80;93.10
19256;DHT22;9762;52.490;13.410;2022-07-22T01:27:46;23.80;93.00
19256;DHT22;9762;52.490;13.410;2022-07-22T01:30:12;23.80;93.00
19256;DHT22;9762;52.490;13.410;2022-07-22T01:32:38;23.80;93.10
19256;DHT22;9762;52.490;13.410;2022-07-22T01:35:03;23.80;93.20
19256;DHT22;9762;52.490;13.410;2022-07-22T01:37:31;23.80;93.20
19256;DHT22;9762;52.490;13.410;2022-07-22T01:39:56;23.70;93.20
19256;DHT22;9762;52.490;13.410;2022-07-22T01:42:22;23.70;93.20
19256;DHT22;9762;52.490;13.410;2022-07-22T01:44:47;23.70;93.60
19256;DHT22;9762;52.490;13.410;2022-07-22T01:47:13;23.60;93.30
19256;DHT22;9762;52.490;13.410;2022-07-22T01:49:38;23.60;93.40
19256;DHT22;9762;52.490;13.410;2022-07-22T01:52:04;23.60;93.50
19256;DHT22;9762;52.490;13.410;2022-07-22T01:54:30;23.60;93.50
19256;DHT22;9762;52.490;13.410;2022-07-22T01:56:56;23.60;93.60
19256;DHT22;9762;52.490;13.410;2022-07-22T01:59:22;23.50;93.60
19256;DHT22;9762;52.490;13.410;2022-07-22T02:01:47;23.50;93.70
19256;DHT22;9762;52.490;13.410;2022-07-22T02:04:13;23.40;93.80
19256;DHT22;9762;52.490;13.410;2022-07-22T02:06:38;23.40;94.00
19256;DHT22;9762;52.490;13.410;2022-07-22T02:09:04;23.30;94.10
19256;DHT22;9762;52.490;13.410;2022-07-22T02:11:30;23.30;94.20
19256;DHT22;9762;52.490;13.410;2022-07-22T02:13:56;23.30;94.30
19256;DHT22;9762;52.490;13.410;2022-07-22T02:16:22;23.20;94.40
19256;DHT22;9762;52.490;13.410;2022-07-22T02:18:47;23.20;94.50
19256;DHT22;9762;52.490;13.410;2022-07-22T02:21:13;23.20;94.60
19256;DHT22;9762;52.490;13.410;2022-07-22T02:23:38;23.20;94.60
19256;DHT22;9762;52.490;13.410;2022-07-22T02:26:04;23.20;94.70
19256;DHT22;9762;52.490;13.410;2022-07-22T02:28:30;23.20;94.70
19256;DHT22;9762;52.490;13.410;2022-07-22T02:30:56;23.20;94.70
19256;DHT22;9762;52.490;13.410;2022-07-22T02:33:21;23.10;94.80
19256;DHT22;9762;52.490;13.410;2022-07-22T02:35:47;23.10;94.90
19256;DHT22;9762;52.490;13.410;2022-07-22T02:38:13;23.10;95.30
19256;DHT22;9762;52.490;13.410;2022-07-22T02:40:38;23.10;95.40
19256;DHT22;9762;52.490;13.410;2022-07-22T02:43:04;23.10;95.00
19256;DHT22;9762;52.490;13.410;2022-07-22T02:45:32;23.10;95.10
19256;DHT22;9762;52.490;13.410;2022-07-22T02:47:58;23.00;95.10
19256;DHT22;9762;52.490;13.410;2022-07-22T02:50:24;23.00;95.20
19256;DHT22;9762;52.490;13.410;2022-07-22T02:52:50;23.00;95.30
19256;DHT22;9762;52.490;13.410;2022-07-22T02:55:17;23.00;97.10
19256;DHT22;9762;52.490;13.410;2022-07-22T02:57:42;23.00;95.40
19256;DHT22;9762;52.490;13.410;2022-07-22T03:00:09;22.90;95.50
19256;DHT22;9762;52.490;13.410;2022-07-22T03:02:35;22.90;95.60
19256;DHT22;9762;52.490;13.410;2022-07-22T03:05:02;22.80;95.70
19256;DHT22;9762;52.490;13.410;2022-07-22T03:07:28;22.80;95.80
19256;DHT22;9762;52.490;13.410;2022-07-22T03:09:53;22.80;95.90
19256;DHT22;9762;52.490;13.410;2022-07-22T03:12:19;22.80;96.00
19256;DHT22;9762;52.490;13.410;2022-07-22T03:14:44;22.80;96.20
19256;DHT22;9762;52.490;13.410;2022-07-22T03:17:10;22.80;96.40
19256;DHT22;9762;52.490;13.410;2022-07-22T03:19:35;22.80;96.30
19256;DHT22;9762;52.490;13.410;2022-07-22T03:22:01;22.70;96.40
19256;DHT22;9762;52.490;13.410;2022-07-22T03:24:26;22.70;96.40
19256;DHT22;9762;52.490;13.410;2022-07-22T03:26:52;22.70;96.40
19256;DHT22;9762;52.490;13.410;2022-07-22T03:29:17;22.70;96.40
19256;DHT22;9762;52.490;13.410;2022-07-22T03:31:43;22.70;96.50
19256;DHT22;9762;52.490;13.410;2022-07-22T03:34:08;22.70;97.30
19256;DHT22;9762;52.490;13.410;2022-07-22T03:36:34;22.60;96.90
19256;DHT22;9762;52.490;13.410;2022-07-22T03:39:00;22.60;96.90
19256;DHT22;9762;52.490;13.410;2022-07-22T03:41:25;22.80;97.10
19256;DHT22;9762;52.490;13.410;2022-07-22T03:43:51;22.60;96.90
19256;DHT22;9762;52.490;13.410;2022-07-22T03:46:17;22.60;96.80
19256;DHT22;9762;52.490;13.410;2022-07-22T03:48:42;22.60;96.70
19256;DHT22;9762;52.490;13.410;2022-07-22T03:51:08;22.60;96.70
19256;DHT22;9762;52.490;13.410;2022-07-22T03:53:33;22.60;96.70
19256;DHT22;9762;52.490;13.410;2022-07-22T03:55:59;22.60;96.80
19256;DHT22;9762;52.490;13.410;2022-07-22T03:58:25;22.60;96.80
19256;DHT22;9762;52.490;13.410;2022-07-22T04:00:52;22.60;97.20
19256;DHT22;9762;52.490;13.410;2022-07-22T04:03:18;22.50;96.90
19256;DHT22;9762;52.490;13.410;2022-07-22T04:05:44;22.50;97.10
19256;DHT22;9762;52.490;13.410;2022-07-22T04:08:11;22.50;97.10
19256;DHT22;9762;52.490;13.410;2022-07-22T04:10:36;22.40;97.10
19256;DHT22;9762;52.490;13.410;2022-07-22T04:13:02;22.50;97.20
19256;DHT22;9762;52.490;13.410;2022-07-22T04:15:28;22.50;97.20
19256;DHT22;9762;52.490;13.410;2022-07-22T04:17:53;22.50;97.20
19256;DHT22;9762;52.490;13.410;2022-07-22T04:20:19;22.50;97.60
19256;DHT22;9762;52.490;13.410;2022-07-22T04:22:45;22.50;97.20
19256;DHT22;9762;52.490;13.410;2022-07-22T04:25:10;22.50;97.30
19256;DHT22;9762;52.490;13.410;2022-07-22T04:27:36;22.50;97.30
19256;DHT22;9762;52.490;13.410;2022-07-22T04:30:02;22.60;97.30
19256;DHT22;9762;52.490;13.410;2022-07-22T04:32:28;22.60;97.20
19256;DHT22;9762;52.490;13.410;2022-07-22T04:34:53;22.60;97.20
19256;DHT22;9762;52.490;13.410;2022-07-22T04:37:19;22.60;97.10
19256;DHT22;9762;52.490;13.410;2022-07-22T04:39:44;22.60;97.20
19256;DHT22;9762;52.490;13.410;2022-07-22T04:42:10;22.60;97.10
19256;DHT22;9762;52.490;13.410;2022-07-22T04:44:36;22.70;97.10
19256;DHT22;9762;52.490;13.410;2022-07-22T04:47:01;22.70;97.00
19256;DHT22;9762;52.490;13.410;2022-07-22T04:49:27;22.80;96.80
19256;DHT22;9762;52.490;13.410;2022-07-22T04:51:52;22.80;96.60
19256;DHT22;9762;52.490;13.410;2022-07-22T04:54:18;22.80;96.60
19256;DHT22;9762;52.490;13.410;2022-07-22T04:56:43;22.80;96.40
19256;DHT22;9762;52.490;13.410;2022-07-22T04:59:09;22.80;96.30
19256;DHT22;9762;52.490;13.410;2022-07-22T05:01:35;22.80;96.40
19256;DHT22;9762;52.490;13.410;2022-07-22T05:04:01;22.80;96.40
19256;DHT22;9762;52.490;13.410;2022-07-22T05:06:26;22.90;96.40
19256;DHT22;9762;52.490;13.410;2022-07-22T05:08:52;22.90;96.40
19256;DHT22;9762;52.490;13.410;2022-07-22T05:11:17;22.90;96.30
19256;DHT22;9762;52.490;13.410;2022-07-22T05:13:43;23.00;96.20
19256;DHT22;9762;52.490;13.410;2022-07-22T05:16:10;23.00;96.10
19256;DHT22;9762;52.490;13.410;2022-07-22T05:18:35;23.00;95.90
19256;DHT22;9762;52.490;13.410;2022-07-22T05:21:02;23.00;95.90
19256;DHT22;9762;52.490;13.410;2022-07-22T05:23:28;23.00;95.70
19256;DHT22;9762;52.490;13.410;2022-07-22T05:25:53;23.00;95.60
19256;DHT22;9762;52.490;13.410;2022-07-22T05:28:19;23.00;95.60
19256;DHT22;9762;52.490;13.410;2022-07-22T05:30:45;23.00;95.60
19256;DHT22;9762;52.490;13.410;2022-07-22T05:33:10;23.10;95.50
19256;DHT22;9762;52.490;13.410;2022-07-22T05:35:36;23.10;95.50
19256;DHT22;9762;52.490;13.410;2022-07-22T05:38:02;23.00;95.40
19256;DHT22;9762;52.490;13.410;2022-07-22T05:40:28;23.10;95.50
19256;DHT22;9762;52.490;13.410;2022-07-22T05:42:54;23.10;95.50
19256;DHT22;9762;52.490;13.410;2022-07-22T05:45:20;23.10;95.60
19256;DHT22;9762;52.490;13.410;2022-07-22T05:47:45;23.10;95.60
19256;DHT22;9762;52.490;13.410;2022-07-22T05:50:11;23.10;95.60
19256;DHT22;9762;52.490;13.410;2022-07-22T05:52:37;23.10;95.60
19256;DHT22;9762;52.490;13.410;2022-07-22T05:55:04;23.20;95.60
19256;DHT22;9762;52.490;13.410;2022-07-22T05:57:30;23.20;95.50
19256;DHT22;9762;52.490;13.410;2022-07-22T05:59:56;23.20;95.40
19256;DHT22;9762;52.490;13.410;2022-07-22T06:02:21;23.30;95.40
19256;DHT22;9762;52.490;13.410;2022-07-22T06:04:47;23.30;95.30
19256;DHT22;9762;52.490;13.410;2022-07-22T06:07:12;23.30;95.20
19256;DHT22;9762;52.490;13.410;2022-07-22T06:09:38;23.30;95.10
19256;DHT22;9762;52.490;13.410;2022-07-22T06:12:04;23.30;95.00
19256;DHT22;9762;52.490;13.410;2022-07-22T06:14:30;23.40;95.00
19256;DHT22;9762;52.490;13.410;2022-07-22T06:16:55;23.40;95.00
19256;DHT22;9762;52.490;13.410;2022-07-22T06:19:21;23.40;95.00
19256;DHT22;9762;52.490;13.410;2022-07-22T06:21:47;23.40;95.00
19256;DHT22;9762;52.490;13.410;2022-07-22T06:24:12;23.50;95.00
19256;DHT22;9762;52.490;13.410;2022-07-22T06:26:38;23.50;94.90
19256;DHT22;9762;52.490;13.410;2022-07-22T06:29:03;23.50;94.80
19256;DHT22;9762;52.490;13.410;2022-07-22T06:31:29;23.60;94.80
19256;DHT22;9762;52.490;13.410;2022-07-22T06:33:55;23.60;94.70
19256;DHT22;9762;52.490;13.410;2022-07-22T06:36:20;23.70;94.60
19256;DHT22;9762;52.490;13.410;2022-07-22T06:38:46;23.70;94.40
19256;DHT22;9762;52.490;13.410;2022-07-22T06:41:11;23.80;94.20
19256;DHT22;9762;52.490;13.410;2022-07-22T06:43:38;23.80;94.20
19256;DHT22;9762;52.490;13.410;2022-07-22T06:46:05;23.80;94.20
19256;DHT22;9762;52.490;13.410;2022-07-22T06:48:30;23.80;94.10
19256;DHT22;9762;52.490;13.410;2022-07-22T06:50:56;23.80;94.00
19256;DHT22;9762;52.490;13.410;2022-07-22T06:53:22;23.90;93.90
19256;DHT22;9762;52.490;13.410;2022-07-22T06:55:47;23.90;93.80
19256;DHT22;9762;52.490;13.410;2022-07-22T06:58:13;23.90;93.60
19256;DHT22;9762;52.490;13.410;2022-07-22T07:00:39;23.90;93.60
19256;DHT22;9762;52.490;13.410;2022-07-22T07:03:04;24.00;93.80
19256;DHT22;9762;52.490;13.410;2022-07-22T07:05:30;24.00;93.70
19256;DHT22;9762;52.490;13.410;2022-07-22T07:07:56;24.00;93.50
19256;DHT22;9762;52.490;13.410;2022-07-22T07:10:22;24.10;93.30
19256;DHT22;9762;52.490;13.410;2022-07-22T07:12:48;24.20;93.40
19256;DHT22;9762;52.490;13.410;2022-07-22T07:15:13;24.20;93.20
19256;DHT22;9762;52.490;13.410;2022-07-22T07:17:39;24.20;93.00
19256;DHT22;9762;52.490;13.410;2022-07-22T07:20:06;24.30;92.90
19256;DHT22;9762;52.490;13.410;2022-07-22T07:22:32;24.30;92.70
19256;DHT22;9762;52.490;13.410;2022-07-22T07:25:05;24.30;92.40
19256;DHT22;9762;52.490;13.410;2022-07-22T07:27:31;24.30;92.40
19256;DHT22;9762;52.490;13.410;2022-07-22T07:29:56;24.30;92.50
19256;DHT22;9762;52.490;13.410;2022-07-22T07:32:22;24.30;92.50
19256;DHT22;9762;52.490;13.410;2022-07-22T07:34:48;24.40;92.60
19256;DHT22;9762;52.490;13.410;2022-07-22T07:37:13;24.40;92.40
19256;DHT22;9762;52.490;13.410;2022-07-22T07:39:39;24.50;92.30
19256;DHT22;9762;52.490;13.410;2022-07-22T07:42:05;24.60;92.10
19256;DHT22;9762;52.490;13.410;2022-07-22T07:44:30;24.70;91.80
19256;DHT22;9762;52.490;13.410;2022-07-22T07:46:56;24.70;91.30
19256;DHT22;9762;52.490;13.410;2022-07-22T07:49:21;24.70;91.20
19256;DHT22;9762;52.490;13.410;2022-07-22T07:51:47;24.70;91.10
19256;DHT22;9762;52.490;13.410;2022-07-22T07:54:12;24.80;90.90
19256;DHT22;9762;52.490;13.410;2022-07-22T07:56:38;24.90;90.70
19256;DHT22;9762;52.490;13.410;2022-07-22T07:59:04;24.90;90.90
19256;DHT22;9762;52.490;13.410;2022-07-22T08:01:30;25.00;90.90
19256;DHT22;9762;52.490;13.410;2022-07-22T08:03:56;25.00;90.80
19256;DHT22;9762;52.490;13.410;2022-07-22T08:06:22;25.10;90.70
19256;DHT22;9762;52.490;13.410;2022-07-22T08:08:47;25.10;90.20
19256;DHT22;9762;52.490;13.410;2022-07-22T08:11:13;25.20;90.40
19256;DHT22;9762;52.490;13.410;2022-07-22T08:13:39;25.20;90.00
19256;DHT22;9762;52.490;13.410;2022-07-22T08:16:04;25.20;89.70
19256;DHT22;9762;52.490;13.410;2022-07-22T08:18:30;25.30;89.80
19256;DHT22;9762;52.490;13.410;2022-07-22T08:20:56;25.30;89.60
19256;DHT22;9762;52.490;13.410;2022-07-22T08:23:23;25.40;89.50
19256;DHT22;9762;52.490;13.410;2022-07-22T08:25:48;25.40;88.60
19256;DHT22;9762;52.490;13.410;2022-07-22T08:28:14;25.50;88.60
19256;DHT22;9762;52.490;13.410;2022-07-22T08:30:40;25.60;89.40
19256;DHT22;9762;52.490;13.410;2022-07-22T08:33:06;25.70;88.30
19256;DHT22;9762;52.490;13.410;2022-07-22T08:35:33;25.80;88.40
19256;DHT22;9762;52.490;13.410;2022-07-22T08:37:59;25.90;87.70
19256;DHT22;9762;52.490;13.410;2022-07-22T08:40:25;25.90;86.80
19256;DHT22;9762;52.490;13.410;2022-07-22T08:42:50;26.00;86.40
19256;DHT22;9762;52.490;13.410;2022-07-22T08:45:17;26.00;85.50
19256;DHT22;9762;52.490;13.410;2022-07-22T08:47:48;26.00;85.70
19256;DHT22;9762;52.490;13.410;2022-07-22T08:50:14;26.00;84.80
19256;DHT22;9762;52.490;13.410;2022-07-22T08:52:40;26.00;84.40
19256;DHT22;9762;52.490;13.410;2022-07-22T08:55:07;25.90;84.50
19256;DHT22;9762;52.490;13.410;2022-07-22T08:57:33;25.80;84.70
19256;DHT22;9762;52.490;13.410;2022-07-22T09:00:00;25.80;84.80
19256;DHT22;9762;52.490;13.410;2022-07-22T09:02:27;25.70;85.10
19256;DHT22;9762;52.490;13.410;2022-07-22T09:04:58;25.60;85.40
19256;DHT22;9762;52.490;13.410;2022-07-22T09:07:28;25.60;85.80
19256;DHT22;9762;52.490;13.410;2022-07-22T09:09:55;25.50;86.10
19256;DHT22;9762;52.490;13.410;2022-07-22T09:12:21;25.40;86.20
19256;DHT22;9762;52.490;13.410;2022-07-22T09:14:50;25.30;86.60
19256;DHT22;9762;52.490;13.410;2022-07-22T09:17:36;25.30;87.10
19256;DHT22;9762;52.490;13.410;2022-07-22T09:20:15;25.30;87.40
19256;DHT22;9762;52.490;13.410;2022-07-22T09:22:43;25.30;87.90
19256;DHT22;9762;52.490;13.410;2022-07-22T09:25:19;25.40;88.20
19256;DHT22;9762;52.490;13.410;2022-07-22T09:27:46;25.40;87.90
19256;DHT22;9762;52.490;13.410;2022-07-22T09:30:20;25.50;87.50
19256;DHT22;9762;52.490;13.410;2022-07-22T09:32:47;25.50;87.30
19256;DHT22;9762;52.490;13.410;2022-07-22T09:35:13;25.50;87.20
19256;DHT22;9762;52.490;13.410;2022-07-22T09:38:01;25.50;87.30
19256;DHT22;9762;52.490;13.410;2022-07-22T09:40:32;25.50;87.60
19256;DHT22;9762;52.490;13.410;2022-07-22T09:43:00;25.50;88.00
19256;DHT22;9762;52.490;13.410;2022-07-22T09:45:28;25.40;87.80
19256;DHT22;9762;52.490;13.410;2022-07-22T09:47:56;25.40;87.90
19256;DHT22;9762;52.490;13.410;2022-07-22T09:50:24;25.40;87.90
19256;DHT22;9762;52.490;13.410;2022-07-22T09:52:52;25.30;88.10
19256;DHT22;9762;52.490;13.410;2022-07-22T09:55:20;25.30;88.60
19256;DHT22;9762;52.490;13.410;2022-07-22T09:57:46;25.30;88.90
19256;DHT22;9762;52.490;13.410;2022-07-22T10:00:14;25.30;88.60
19256;DHT22;9762;52.490;13.410;2022-07-22T10:02:48;25.30;88.80
19256;DHT22;9762;52.490;13.410;2022-07-22T10:05:15;25.40;87.90
19256;DHT22;9762;52.490;13.410;2022-07-22T10:07:42;25.40;87.50
19256;DHT22;9762;52.490;13.410;2022-07-22T10:10:10;25.50;87.80
19256;DHT22;9762;52.490;13.410;2022-07-22T10:12:37;25.50;87.60
19256;DHT22;9762;52.490;13.410;2022-07-22T10:15:04;25.50;87.30
19256;DHT22;9762;52.490;13.410;2022-07-22T10:17:30;25.60;87.60
19256;DHT22;9762;52.490;13.410;2022-07-22T10:19:57;25.60;87.20
19256;DHT22;9762;52.490;13.410;2022-07-22T10:25:08;25.70;86.90
19256;DHT22;9762;52.490;13.410;2022-07-22T10:27:51;25.70;86.60
19256;DHT22;9762;52.490;13.410;2022-07-22T10:30:19;25.80;87.00
19256;DHT22;9762;52.490;13.410;2022-07-22T10:32:45;26.00;86.60
19256;DHT22;9762;52.490;13.410;2022-07-22T10:35:26;26.10;86.50
19256;DHT22;9762;52.490;13.410;2022-07-22T10:37:54;26.20;86.30
19256;DHT22;9762;52.490;13.410;2022-07-22T10:40:23;26.30;85.90
19256;DHT22;9762;52.490;13.410;2022-07-22T10:43:10;26.50;85.80
19256;DHT22;9762;52.490;13.410;2022-07-22T10:45:37;26.60;84.70
19256;DHT22;9762;52.490;13.410;2022-07-22T10:48:14;26.70;84.10
19256;DHT22;9762;52.490;13.410;2022-07-22T10:50:41;26.90;83.00
19256;DHT22;9762;52.490;13.410;2022-07-22T10:53:10;27.00;81.70
19256;DHT22;9762;52.490;13.410;2022-07-22T10:55:37;27.10;80.90
19256;DHT22;9762;52.490;13.410;2022-07-22T11:00:58;27.50;80.50
19256;DHT22;9762;52.490;13.410;2022-07-22T11:03:25;27.60;79.50
19256;DHT22;9762;52.490;13.410;2022-07-22T11:05:50;27.70;78.10
19256;DHT22;9762;52.490;13.410;2022-07-22T11:08:16;27.90;78.50
19256;DHT22;9762;52.490;13.410;2022-07-22T11:10:50;28.00;78.10
19256;DHT22;9762;52.490;13.410;2022-07-22T11:13:48;28.10;76.00
19256;DHT22;9762;52.490;13.410;2022-07-22T11:16:24;28.20;76.60
19256;DHT22;9762;52.490;13.410;2022-07-22T11:18:54;28.20;77.50
19256;DHT22;9762;52.490;13.410;2022-07-22T11:21:24;28.20;77.20
19256;DHT22;9762;52.490;13.410;2022-07-22T11:23:55;28.10;76.90
19256;DHT22;9762;52.490;13.410;2022-07-22T11:26:41;28.10;77.20
19256;DHT22;9762;52.490;13.410;2022-07-22T11:29:08;27.90;77.10
19256;DHT22;9762;52.490;13.410;2022-07-22T11:31:35;27.90;77.80
19256;DHT22;9762;52.490;13.410;2022-07-22T11:34:09;27.90;78.80
19256;DHT22;9762;52.490;13.410;2022-07-22T11:36:38;28.00;78.10
19256;DHT22;9762;52.490;13.410;2022-07-22T11:39:05;28.10;77.90
19256;DHT22;9762;52.490;13.410;2022-07-22T11:41:31;28.30;78.20
19256;DHT22;9762;52.490;13.410;2022-07-22T11:43:57;28.40;77.30
19256;DHT22;9762;52.490;13.410;2022-07-22T11:46:23;28.50;76.10
19256;DHT22;9762;52.490;13.410;2022-07-22T11:48:54;28.50;76.40
19256;DHT22;9762;52.490;13.410;2022-07-22T11:51:30;28.60;75.60
19256;DHT22;9762;52.490;13.410;2022-07-22T11:53:57;28.60;75.40
19256;DHT22;9762;52.490;13.410;2022-07-22T11:56:24;28.70;75.80
19256;DHT22;9762;52.490;13.410;2022-07-22T11:58:50;28.70;75.60
19256;DHT22;9762;52.490;13.410;2022-07-22T12:01:20;28.80;74.40
19256;DHT22;9762;52.490;13.410;2022-07-22T12:03:51;28.80;74.70
19256;DHT22;9762;52.490;13.410;2022-07-22T12:06:19;28.90;74.30
19256;DHT22;9762;52.490;13.410;2022-07-22T12:08:48;29.00;73.90
19256;DHT22;9762;52.490;13.410;2022-07-22T12:11:16;29.10;73.00
19256;DHT22;9762;52.490;13.410;2022-07-22T12:13:43;29.20;73.30
19256;DHT22;9762;52.490;13.410;2022-07-22T12:16:27;29.20;72.80
19256;DHT22;9762;52.490;13.410;2022-07-22T12:18:54;29.20;72.30
19256;DHT22;9762;52.490;13.410;2022-07-22T12:21:21;29.20;72.10
19256;DHT22;9762;52.490;13.410;2022-07-22T12:26:37;29.10;72.00
19256;DHT22;9762;52.490;13.410;2022-07-22T12:29:21;29.00;71.80
19256;DHT22;9762;52.490;13.410;2022-07-22T12:32:02;28.90;72.20
19256;DHT22;9762;52.490;13.410;2022-07-22T12:34:30;28.90;72.30
19256;DHT22;9762;52.490;13.410;2022-07-22T12:36:56;28.90;71.70
19256;DHT22;9762;52.490;13.410;2022-07-22T12:39:22;28.90;71.50
19256;DHT22;9762;52.490;13.410;2022-07-22T12:41:52;28.90;71.70
19256;DHT22;9762;52.490;13.410;2022-07-22T12:44:24;28.90;71.60
19256;DHT22;9762;52.490;13.410;2022-07-22T12:46:52;28.90;71.90
19256;DHT22;9762;52.490;13.410;2022-07-22T12:49:19;29.00;71.30
19256;DHT22;9762;52.490;13.410;2022-07-22T12:52:11;29.10;72.10
19256;DHT22;9762;52.490;13.410;2022-07-22T12:54:38;29.20;71.60
19256;DHT22;9762;52.490;13.410;2022-07-22T12:57:05;29.40;71.60
19256;DHT22;9762;52.490;13.410;2022-07-22T12:59:31;29.50;72.00
19256;DHT22;9762;52.490;13.410;2022-07-22T13:01:57;29.60;70.90
19256;DHT22;9762;52.490;13.410;2022-07-22T13:04:22;29.70;70.00
19256;DHT22;9762;52.490;13.410;2022-07-22T13:06:48;29.80;70.50
19256;DHT22;9762;52.490;13.410;2022-07-22T13:09:14;30.10;69.50
19256;DHT22;9762;52.490;13.410;2022-07-22T13:11:40;30.40;69.60
19256;DHT22;9762;52.490;13.410;2022-07-22T13:14:09;30.60;67.10
19256;DHT22;9762;52.490;13.410;2022-07-22T13:16:35;30.80;66.10
19256;DHT22;9762;52.490;13.410;2022-07-22T13:19:00;31.10;65.50
19256;DHT22;9762;52.490;13.410;2022-07-22T13:21:26;31.20;63.60
19256;DHT22;9762;52.490;13.410;2022-07-22T13:23:51;31.30;63.10
19256;DHT22;9762;52.490;13.410;2022-07-22T13:26:17;31.40;62.10
19256;DHT22;9762;52.490;13.410;2022-07-22T13:28:42;31.30;61.90
19256;DHT22;9762;52.490;13.410;2022-07-22T13:31:09;31.40;62.10
19256;DHT22;9762;52.490;13.410;2022-07-22T13:33:34;31.40;62.30
19256;DHT22;9762;52.490;13.410;2022-07-22T13:36:00;31.40;62.00
19256;DHT22;9762;52.490;13.410;2022-07-22T13:38:26;31.50;61.80
19256;DHT22;9762;52.490;13.410;2022-07-22T13:40:52;31.80;61.60
19256;DHT22;9762;52.490;13.410;2022-07-22T13:43:19;32.10;61.60
19256;DHT22;9762;52.490;13.410;2022-07-22T13:45:45;32.40;60.10
19256;DHT22;9762;52.490;13.410;2022-07-22T13:48:11;32.60;59.50
19256;DHT22;9762;52.490;13.410;2022-07-22T13:50:37;32.80;57.90
19256;DHT22;9762;52.490;13.410;2022-07-22T13:53:02;32.90;57.20
19256;DHT22;9762;52.490;13.410;2022-07-22T13:55:28;33.00;57.80
19256;DHT22;9762;52.490;13.410;2022-07-22T13:57:55;33.10;57.30
19256;DHT22;9762;52.490;13.410;2022-07-22T14:00:23;33.10;56.60
19256;DHT22;9762;52.490;13.410;2022-07-22T14:02:49;33.20;56.80
19256;DHT22;9762;52.490;13.410;2022-07-22T14:05:14;33.40;56.80
19256;DHT22;9762;52.490;13.410;2022-07-22T14:07:40;33.40;55.70
19256;DHT22;9762;52.490;13.410;2022-07-22T14:10:06;33.40;55.40
19256;DHT22;9762;52.490;13.410;2022-07-22T14:12:32;33.40;55.70
19256;DHT22;9762;52.490;13.410;2022-07-22T14:14:58;33.50;55.70
19256;DHT22;9762;52.490;13.410;2022-07-22T14:17:23;33.70;55.20
19256;DHT22;9762;52.490;13.410;2022-07-22T14:19:49;33.70;54.90
19256;DHT22;9762;52.490;13.410;2022-07-22T14:22:15;33.80;55.40
19256;DHT22;9762;52.490;13.410;2022-07-22T14:24:40;34.00;55.10
19256;DHT22;9762;52.490;13.410;2022-07-22T14:27:06;34.20;54.40
19256;DHT22;9762;52.490;13.410;2022-07-22T14:29:31;34.30;53.70
19256;DHT22;9762;52.490;13.410;2022-07-22T14:31:57;34.40;53.20
19256;DHT22;9762;52.490;13.410;2022-07-22T14:34:23;34.40;52.70
19256;DHT22;9762;52.490;13.410;2022-07-22T14:36:48;34.50;53.10
19256;DHT22;9762;52.490;13.410;2022-07-22T14:39:14;34.60;52.50
19256;DHT22;9762;52.490;13.410;2022-07-22T14:41:39;34.70;52.20
19256;DHT22;9762;52.490;13.410;2022-07-22T14:44:05;34.70;51.80
19256;DHT22;9762;52.490;13.410;2022-07-22T14:46:31;34.70;52.00
19256;DHT22;9762;52.490;13.410;2022-07-22T14:48:57;34.80;52.10
19256;DHT22;9762;52.490;13.410;2022-07-22T14:51:23;34.80;52.00
19256;DHT22;9762;52.490;13.410;2022-07-22T14:53:49;35.00;51.40
19256;DHT22;9762;52.490;13.410;2022-07-22T14:56:15;34.90;51.50
19256;DHT22;9762;52.490;13.410;2022-07-22T14:58:40;34.90;50.90
19256;DHT22;9762;52.490;13.410;2022-07-22T15:01:06;35.00;51.00
19256;DHT22;9762;52.490;13.410;2022-07-22T15:03:32;35.00;51.10
19256;DHT22;9762;52.490;13.410;2022-07-22T15:05:57;35.10;51.30
19256;DHT22;9762;52.490;13.410;2022-07-22T15:08:23;35.20;51.10
19256;DHT22;9762;52.490;13.410;2022-07-22T15:10:49;35.30;50.90
19256;DHT22;9762;52.490;13.410;2022-07-22T15:13:14;35.30;50.20
19256;DHT22;9762;52.490;13.410;2022-07-22T15:15:40;35.20;49.70
19256;DHT22;9762;52.490;13.410;2022-07-22T15:18:05;35.20;49.90
19256;DHT22;9762;52.490;13.410;2022-07-22T15:20:31;35.10;50.00
19256;DHT22;9762;52.490;13.410;2022-07-22T15:22:57;35.10;49.80
19256;DHT22;9762;52.490;13.410;2022-07-22T15:25:23;35.10;50.10
19256;DHT22;9762;52.490;13.410;2022-07-22T15:27:50;35.20;50.00
19256;DHT22;9762;52.490;13.410;2022-07-22T15:30:15;35.20;49.90
19256;DHT22;9762;52.490;13.410;2022-07-22T15:32:41;35.20;50.20
19256;DHT22;9762;52.490;13.410;2022-07-22T15:35:07;35.30;49.90